createdAt,value
2018-05-27T00:02:09.081Z,15.50
2018-05-27T00:04:35.279Z,15.50
2018-05-27T00:07:02.242Z,15.50
2018-05-27T00:09:28.431Z,15.50
2018-05-27T00:11:54.654Z,15.50
2018-05-27T00:14:20.858Z,15.50
2018-05-27T00:16:47.087Z,15.50
2018-05-27T00:19:13.283Z,15.60
2018-05-27T00:21:39.571Z,15.50
2018-05-27T00:24:05.798Z,15.50
2018-05-27T00:26:32.017Z,15.60
2018-05-27T00:28:58.210Z,15.60
2018-05-27T00:31:24.423Z,15.60
2018-05-27T00:33:50.626Z,15.70
2018-05-27T00:36:18.326Z,15.80
2018-05-27T00:38:44.585Z,15.80
2018-05-27T00:41:10.772Z,15.80
2018-05-27T00:43:37.745Z,15.90
2018-05-27T00:46:03.943Z,15.90
2018-05-27T00:48:30.910Z,16.00
2018-05-27T00:50:57.179Z,16.00
2018-05-27T00:53:35.858Z,16.00
2018-05-27T00:56:02.047Z,16.00
2018-05-27T00:58:29.011Z,15.90
2018-05-27T01:00:55.946Z,15.90
2018-05-27T01:03:22.917Z,15.90
2018-05-27T01:05:49.115Z,15.90
2018-05-27T01:08:15.354Z,15.90
2018-05-27T01:10:42.301Z,15.80
2018-05-27T01:13:08.556Z,15.80
2018-05-27T01:15:34.759Z,15.80
2018-05-27T01:18:01.744Z,15.80
2018-05-27T01:20:27.943Z,15.70
2018-05-27T01:22:55.675Z,15.70
2018-05-27T01:25:22.304Z,15.60
2018-05-27T01:27:49.428Z,15.50
2018-05-27T01:30:23.157Z,15.50
2018-05-27T01:32:49.405Z,15.50
2018-05-27T01:35:17.087Z,15.30
2018-05-27T01:37:44.047Z,15.30
2018-05-27T01:40:10.240Z,15.30
2018-05-27T01:42:37.950Z,15.20
2018-05-27T01:45:04.151Z,15.20
2018-05-27T01:47:31.103Z,15.20
2018-05-27T01:49:58.126Z,15.20
2018-05-27T01:52:24.327Z,15.20
2018-05-27T01:54:50.576Z,15.20
2018-05-27T01:57:16.771Z,15.20
2018-05-27T01:59:42.992Z,15.20
2018-05-27T02:02:09.187Z,15.20
2018-05-27T02:04:36.160Z,15.10
2018-05-27T02:07:02.346Z,15.10
2018-05-27T02:09:29.299Z,15.00
2018-05-27T02:11:56.251Z,14.90
2018-05-27T02:14:23.220Z,14.70
2018-05-27T02:16:49.436Z,14.70
2018-05-27T02:19:16.395Z,14.60
2018-05-27T02:21:42.588Z,14.60
2018-05-27T02:24:08.806Z,14.60
2018-05-27T02:26:34.996Z,14.60
2018-05-27T02:29:01.207Z,14.60
2018-05-27T02:31:27.403Z,14.60
2018-05-27T02:33:54.368Z,14.70
2018-05-27T02:36:21.312Z,14.70
2018-05-27T02:38:48.273Z,14.70
2018-05-27T02:41:14.541Z,14.70
2018-05-27T02:43:40.783Z,14.80
2018-05-27T02:46:06.987Z,14.70
2018-05-27T02:48:33.179Z,14.70
2018-05-27T02:50:59.409Z,14.70
2018-05-27T02:53:25.647Z,14.70
2018-05-27T02:55:51.873Z,14.60
2018-05-27T02:58:18.080Z,14.60
2018-05-27T03:00:45.039Z,14.50
2018-05-27T03:03:12.043Z,14.50
2018-05-27T03:05:38.263Z,14.50
2018-05-27T03:08:04.458Z,14.50
2018-05-27T03:10:30.679Z,14.50
2018-05-27T03:12:57.613Z,14.40
2018-05-27T03:15:24.603Z,14.30
2018-05-27T03:17:50.804Z,14.30
2018-05-27T03:20:17.839Z,14.00
2018-05-27T03:22:44.778Z,13.90
2018-05-27T03:25:11.738Z,13.90
2018-05-27T03:27:38.670Z,13.90
2018-05-27T03:30:05.644Z,13.90
2018-05-27T03:32:31.861Z,13.90
2018-05-27T03:34:58.843Z,13.90
2018-05-27T03:37:25.035Z,13.90
2018-05-27T03:39:52.008Z,14.10
2018-05-27T03:42:18.214Z,14.00
2018-05-27T03:44:44.460Z,14.20
2018-05-27T03:47:10.655Z,14.20
2018-05-27T03:49:37.586Z,14.40
2018-05-27T03:52:04.547Z,14.40
2018-05-27T03:54:31.513Z,14.40
2018-05-27T03:56:57.739Z,14.40
2018-05-27T03:59:23.943Z,14.50
2018-05-27T04:01:50.914Z,14.50
2018-05-27T04:04:29.467Z,14.50
2018-05-27T04:07:08.084Z,14.50
2018-05-27T04:09:34.288Z,14.60
2018-05-27T04:12:01.334Z,14.60
2018-05-27T04:14:27.534Z,14.70
2018-05-27T04:16:53.750Z,14.70
2018-05-27T04:19:19.947Z,14.80
2018-05-27T04:21:46.172Z,14.90
2018-05-27T04:24:12.370Z,14.90
2018-05-27T04:26:38.595Z,15.00
2018-05-27T04:29:05.527Z,15.20
2018-05-27T04:31:32.494Z,15.30
2018-05-27T04:33:58.694Z,15.20
2018-05-27T04:36:32.725Z,15.40
2018-05-27T04:38:59.642Z,15.60
2018-05-27T04:41:25.859Z,15.50
2018-05-27T04:43:52.091Z,15.60
2018-05-27T04:46:18.347Z,15.70
2018-05-27T04:48:45.293Z,15.90
2018-05-27T04:51:12.232Z,16.00
2018-05-27T04:53:39.218Z,16.10
2018-05-27T04:56:05.420Z,16.10
2018-05-27T04:58:32.387Z,16.30
2018-05-27T05:00:58.586Z,16.30
2018-05-27T05:03:24.806Z,16.40
2018-05-27T05:05:51.008Z,16.60
2018-05-27T05:08:17.300Z,16.70
2018-05-27T05:10:43.495Z,16.90
2018-05-27T05:13:09.747Z,17.00
2018-05-27T05:15:37.030Z,17.40
2018-05-27T05:18:03.331Z,17.30
2018-05-27T05:20:30.274Z,17.70
2018-05-27T05:22:57.212Z,17.90
2018-05-27T05:25:24.173Z,17.80
2018-05-27T05:27:50.372Z,17.80
2018-05-27T05:30:17.335Z,17.80
2018-05-27T05:32:44.280Z,17.80
2018-05-27T05:35:11.250Z,17.90
2018-05-27T05:37:37.444Z,17.90
2018-05-27T05:40:03.671Z,18.10
2018-05-27T05:42:29.872Z,18.30
2018-05-27T05:44:56.103Z,18.50
2018-05-27T05:47:22.303Z,18.70
2018-05-27T05:49:48.522Z,18.80
2018-05-27T05:52:14.724Z,18.90
2018-05-27T05:54:41.702Z,19.10
2018-05-27T05:57:07.903Z,19.10
2018-05-27T05:59:34.863Z,19.30
2018-05-27T06:02:01.059Z,19.20
2018-05-27T06:04:27.314Z,19.40
2018-05-27T06:06:54.275Z,19.60
2018-05-27T06:09:20.518Z,19.60
2018-05-27T06:11:46.707Z,19.60
2018-05-27T06:14:13.642Z,19.50
2018-05-27T06:16:39.863Z,19.50
2018-05-27T06:19:07.551Z,19.30
2018-05-27T06:21:34.578Z,19.00
2018-05-27T06:24:01.549Z,18.80
2018-05-27T06:26:28.514Z,18.50
2018-05-27T06:28:54.707Z,18.40
2018-05-27T06:31:21.667Z,18.90
2018-05-27T06:33:48.614Z,19.30
2018-05-27T06:36:15.576Z,19.60
2018-05-27T06:38:41.769Z,19.60
2018-05-27T06:41:07.991Z,19.80
2018-05-27T06:43:34.197Z,20.30
2018-05-27T06:46:00.418Z,21.00
2018-05-27T06:48:26.609Z,21.60
2018-05-27T06:50:53.572Z,21.80
2018-05-27T06:53:19.767Z,21.80
2018-05-27T06:55:45.982Z,21.30
2018-05-27T06:58:12.180Z,21.60
2018-05-27T07:00:38.407Z,22.00
2018-05-27T07:03:04.622Z,22.70
2018-05-27T07:05:30.847Z,23.20
2018-05-27T07:07:57.047Z,23.70
2018-05-27T07:10:24.016Z,24.40
2018-05-27T07:12:50.206Z,24.30
2018-05-27T07:15:16.440Z,24.60
2018-05-27T07:17:42.634Z,25.20
2018-05-27T07:20:08.859Z,25.20
2018-05-27T07:22:35.051Z,24.70
2018-05-27T07:25:01.256Z,24.30
2018-05-27T07:27:27.480Z,23.70
2018-05-27T07:29:53.895Z,23.60
2018-05-27T07:32:20.157Z,23.80
2018-05-27T07:34:46.322Z,23.50
2018-05-27T07:37:12.551Z,23.00
2018-05-27T07:39:38.747Z,22.90
2018-05-27T07:42:05.715Z,24.40
2018-05-27T07:44:31.911Z,24.40
2018-05-27T07:46:58.127Z,25.60
2018-05-27T07:49:24.381Z,27.30
2018-05-27T07:51:51.340Z,29.00
2018-05-27T07:54:17.539Z,28.90
2018-05-27T07:56:43.763Z,29.90
2018-05-27T07:59:09.963Z,30.70
2018-05-27T08:01:36.207Z,31.00
2018-05-27T08:04:02.408Z,30.70
2018-05-27T08:06:28.630Z,30.80
2018-05-27T08:08:54.818Z,30.50
2018-05-27T08:11:22.039Z,30.80
2018-05-27T08:13:48.261Z,30.70
2018-05-27T08:16:14.523Z,30.30
2018-05-27T08:18:40.747Z,30.50
2018-05-27T08:21:08.440Z,29.50
2018-05-27T08:23:35.399Z,29.20
2018-05-27T08:26:01.664Z,29.20
2018-05-27T08:28:27.880Z,29.70
2018-05-27T08:30:54.071Z,29.50
2018-05-27T08:33:21.032Z,31.60
2018-05-27T08:35:47.227Z,31.50
2018-05-27T08:38:13.438Z,32.00
2018-05-27T08:40:39.631Z,32.20
2018-05-27T08:43:05.854Z,31.60
2018-05-27T08:45:32.046Z,32.20
2018-05-27T08:47:59.011Z,32.80
2018-05-27T08:50:25.198Z,32.70
2018-05-27T08:52:51.418Z,32.50
2018-05-27T08:55:17.610Z,33.10
2018-05-27T08:57:43.858Z,33.40
2018-05-27T09:00:10.050Z,33.60
2018-05-27T09:02:36.299Z,34.00
2018-05-27T09:05:02.519Z,34.30
2018-05-27T09:07:28.719Z,33.80
2018-05-27T09:09:55.678Z,33.50
2018-05-27T09:12:22.619Z,33.70
2018-05-27T09:14:49.594Z,32.70
2018-05-27T09:17:15.803Z,32.70
2018-05-27T09:19:42.766Z,32.70
2018-05-27T09:22:09.341Z,32.70
2018-05-27T09:24:35.562Z,33.50
2018-05-27T09:27:01.796Z,32.90
2018-05-27T09:29:28.067Z,31.80
2018-05-27T09:31:55.015Z,32.10
2018-05-27T09:34:21.978Z,31.80
2018-05-27T09:36:48.179Z,31.80
2018-05-27T09:39:15.160Z,33.90
2018-05-27T09:41:41.367Z,33.90
2018-05-27T09:44:08.331Z,35.20
2018-05-27T09:46:34.614Z,35.10
2018-05-27T09:49:00.846Z,35.80
2018-05-27T09:51:27.110Z,36.30
2018-05-27T09:53:54.052Z,36.30
2018-05-27T09:56:20.990Z,36.90
2018-05-27T09:58:47.957Z,37.30
2018-05-27T10:01:14.179Z,37.30
2018-05-27T10:03:40.423Z,38.20
2018-05-27T10:06:06.661Z,38.50
2018-05-27T10:08:32.879Z,37.70
2018-05-27T10:10:59.090Z,37.60
2018-05-27T10:13:25.324Z,37.60
2018-05-27T10:15:51.530Z,38.70
2018-05-27T10:18:18.524Z,37.30
2018-05-27T10:20:44.734Z,37.30
2018-05-27T10:23:11.007Z,36.20
2018-05-27T10:25:37.983Z,34.40
2018-05-27T10:28:04.946Z,34.00
2018-05-27T10:30:31.143Z,33.90
2018-05-27T10:32:57.372Z,33.70
2018-05-27T10:35:23.575Z,33.20
2018-05-27T10:37:49.797Z,33.60
2018-05-27T10:40:16.001Z,33.50
2018-05-27T10:42:42.219Z,32.70
2018-05-27T10:45:09.168Z,33.80
2018-05-27T10:47:35.383Z,33.90
2018-05-27T10:50:02.327Z,36.90
2018-05-27T10:52:29.254Z,37.70
2018-05-27T10:54:55.475Z,37.60
2018-05-27T10:57:22.447Z,36.50
2018-05-27T10:59:49.420Z,35.50
2018-05-27T11:02:15.644Z,35.50
2018-05-27T11:04:41.858Z,35.60
2018-05-27T11:07:08.803Z,36.00
2018-05-27T11:09:35.768Z,36.60
2018-05-27T11:12:02.031Z,36.60
2018-05-27T11:14:28.255Z,36.90
2018-05-27T11:16:54.446Z,37.10
2018-05-27T11:19:20.667Z,35.80
2018-05-27T11:21:54.707Z,33.70
2018-05-27T11:24:20.922Z,33.70
2018-05-27T11:26:47.122Z,32.90
2018-05-27T11:29:14.075Z,34.40
2018-05-27T11:31:41.015Z,34.80
2018-05-27T11:34:07.979Z,35.20
2018-05-27T11:36:34.177Z,35.20
2018-05-27T11:39:00.394Z,36.60
2018-05-27T11:41:26.598Z,37.20
2018-05-27T11:43:52.827Z,37.50
2018-05-27T11:46:19.018Z,37.90
2018-05-27T11:48:45.264Z,38.70
2018-05-27T11:51:11.503Z,39.30
2018-05-27T11:53:37.703Z,40.00
2018-05-27T11:56:04.663Z,39.40
2018-05-27T11:58:30.858Z,39.30
2018-05-27T12:00:57.073Z,38.90
2018-05-27T12:03:23.300Z,38.20
2018-05-27T12:05:49.528Z,37.90
2018-05-27T12:08:15.727Z,39.00
2018-05-27T12:10:41.946Z,39.30
2018-05-27T12:13:08.210Z,39.90
2018-05-27T12:15:35.211Z,39.70
2018-05-27T12:18:01.407Z,39.60
2018-05-27T12:20:28.375Z,40.60
2018-05-27T12:22:55.323Z,41.10
2018-05-27T12:25:21.543Z,41.10
2018-05-27T12:27:48.476Z,39.20
2018-05-27T12:30:15.442Z,39.60
2018-05-27T12:32:41.634Z,39.50
2018-05-27T12:35:07.851Z,40.20
2018-05-27T12:37:34.052Z,40.40
2018-05-27T12:40:00.268Z,40.40
2018-05-27T12:42:26.467Z,39.50
2018-05-27T12:44:53.427Z,40.50
2018-05-27T12:47:20.359Z,41.30
2018-05-27T12:49:47.323Z,41.30
2018-05-27T12:52:13.512Z,41.30
2018-05-27T12:54:39.731Z,41.00
2018-05-27T12:57:05.959Z,41.50
2018-05-27T12:59:32.150Z,41.40
2018-05-27T13:01:58.403Z,40.80
2018-05-27T13:04:24.602Z,40.50
2018-05-27T13:06:50.820Z,40.30
2018-05-27T13:09:17.019Z,41.30
2018-05-27T13:11:43.332Z,41.30
2018-05-27T13:14:09.526Z,41.40
2018-05-27T13:16:35.877Z,41.00
2018-05-27T13:19:01.996Z,40.80
2018-05-27T13:21:28.285Z,41.20
2018-05-27T13:23:54.519Z,41.30
2018-05-27T13:26:21.478Z,39.90
2018-05-27T13:28:47.682Z,39.80
2018-05-27T13:31:14.642Z,38.60
2018-05-27T13:33:41.574Z,38.60
2018-05-27T13:36:08.543Z,38.00
2018-05-27T13:38:34.729Z,38.00
2018-05-27T13:41:00.950Z,37.20
2018-05-27T13:43:27.151Z,37.40
2018-05-27T13:45:53.363Z,37.00
2018-05-27T13:48:19.564Z,36.50
2018-05-27T13:50:46.524Z,36.60
2018-05-27T13:53:13.479Z,37.00
2018-05-27T13:55:39.675Z,36.90
2018-05-27T13:58:06.638Z,37.00
2018-05-27T14:00:33.571Z,36.90
2018-05-27T14:03:00.553Z,36.50
2018-05-27T14:05:26.787Z,36.50
2018-05-27T14:07:53.079Z,36.30
2018-05-27T14:10:20.022Z,35.70
2018-05-27T14:12:46.987Z,35.40
2018-05-27T14:15:13.931Z,36.10
2018-05-27T14:17:40.886Z,36.10
2018-05-27T14:20:07.081Z,36.10
2018-05-27T14:22:33.307Z,36.40
2018-05-27T14:24:59.502Z,37.00
2018-05-27T14:27:25.730Z,37.40
2018-05-27T14:29:51.926Z,37.70
2018-05-27T14:32:18.188Z,38.10
2018-05-27T14:34:44.387Z,37.20
2018-05-27T14:37:10.671Z,37.30
2018-05-27T14:39:36.866Z,37.30
2018-05-27T14:42:03.086Z,37.90
2018-05-27T14:44:29.283Z,38.20
2018-05-27T14:46:56.256Z,37.50
2018-05-27T14:49:22.455Z,37.50
2018-05-27T14:51:49.419Z,36.60
2018-05-27T14:54:15.614Z,36.60
2018-05-27T14:56:41.839Z,35.70
2018-05-27T14:59:08.036Z,35.20
2018-05-27T15:01:34.261Z,35.40
2018-05-27T15:04:00.490Z,35.30
2018-05-27T15:06:26.720Z,34.40
2018-05-27T15:08:52.947Z,34.10
2018-05-27T15:11:19.183Z,33.80
2018-05-27T15:13:45.383Z,34.20
2018-05-27T15:16:11.667Z,35.00
2018-05-27T15:18:38.629Z,34.70
2018-05-27T15:21:04.848Z,34.70
2018-05-27T15:23:31.109Z,34.50
2018-05-27T15:25:57.331Z,34.10
2018-05-27T15:28:24.270Z,33.90
2018-05-27T15:30:51.234Z,34.00
2018-05-27T15:33:17.427Z,33.90
2018-05-27T15:35:43.643Z,33.80
2018-05-27T15:38:09.855Z,33.40
2018-05-27T15:40:36.855Z,33.00
2018-05-27T15:43:03.790Z,32.00
2018-05-27T15:45:30.759Z,31.00
2018-05-27T15:47:56.950Z,30.90
2018-05-27T15:50:23.163Z,30.40
2018-05-27T15:52:49.350Z,29.50
2018-05-27T15:55:15.578Z,28.90
2018-05-27T15:57:41.781Z,28.40
2018-05-27T16:00:08.995Z,27.40
2018-05-27T16:02:35.210Z,27.40
2018-05-27T16:05:01.409Z,27.20
2018-05-27T16:07:27.635Z,27.00
2018-05-27T16:09:53.831Z,26.80
2018-05-27T16:12:20.055Z,26.60
2018-05-27T16:14:46.254Z,26.60
2018-05-27T16:17:12.489Z,26.60
2018-05-27T16:19:38.731Z,26.40
2018-05-27T16:22:04.931Z,26.20
2018-05-27T16:24:31.152Z,26.20
2018-05-27T16:26:57.523Z,26.10
2018-05-27T16:29:23.718Z,26.00
2018-05-27T16:31:49.942Z,26.00
2018-05-27T16:34:16.167Z,26.00
2018-05-27T16:36:42.387Z,26.00
2018-05-27T16:39:09.339Z,26.00
2018-05-27T16:41:35.534Z,26.00
2018-05-27T16:44:01.755Z,26.00
2018-05-27T16:46:27.951Z,25.90
2018-05-27T16:48:54.171Z,25.80
2018-05-27T16:51:20.439Z,25.90
2018-05-27T16:53:46.658Z,26.00
2018-05-27T16:56:12.862Z,25.90
2018-05-27T16:58:39.083Z,25.90
2018-05-27T17:01:05.299Z,25.90
2018-05-27T17:03:31.520Z,26.00
2018-05-27T17:05:57.723Z,26.00
2018-05-27T17:08:24.678Z,26.00
2018-05-27T17:10:51.614Z,26.00
2018-05-27T17:13:18.576Z,26.00
2018-05-27T17:15:45.567Z,25.90
2018-05-27T17:18:11.767Z,25.80
2018-05-27T17:20:37.986Z,25.70
2018-05-27T17:23:04.275Z,25.60
2018-05-27T17:25:30.474Z,25.50
2018-05-27T17:27:56.675Z,25.40
2018-05-27T17:30:22.918Z,25.30
2018-05-27T17:32:49.115Z,25.10
2018-05-27T17:35:16.075Z,25.10
2018-05-27T17:37:43.067Z,25.10
2018-05-27T17:40:09.290Z,25.00
2018-05-27T17:42:35.519Z,25.00
2018-05-27T17:45:01.743Z,25.00
2018-05-27T17:47:27.938Z,25.00
2018-05-27T17:49:54.162Z,25.00
2018-05-27T17:52:20.380Z,25.00
2018-05-27T17:54:47.354Z,25.00
2018-05-27T17:57:13.555Z,24.90
2018-05-27T17:59:40.526Z,24.80
2018-05-27T18:02:06.759Z,24.80
2018-05-27T18:04:32.990Z,24.80
2018-05-27T18:06:59.193Z,24.80
2018-05-27T18:09:26.159Z,24.80
2018-05-27T18:11:52.355Z,24.80
2018-05-27T18:14:19.333Z,24.60
2018-05-27T18:16:45.544Z,24.60
2018-05-27T18:19:12.515Z,24.40
2018-05-27T18:21:38.716Z,24.40
2018-05-27T18:24:05.004Z,24.40
2018-05-27T18:26:31.208Z,24.30
2018-05-27T18:28:57.408Z,24.20
2018-05-27T18:31:23.630Z,24.20
2018-05-27T18:33:50.642Z,24.10
2018-05-27T18:36:16.873Z,24.00
2018-05-27T18:38:43.090Z,24.00
2018-05-27T18:41:09.319Z,23.90
2018-05-27T18:43:35.527Z,23.70
2018-05-27T18:46:01.747Z,23.50
2018-05-27T18:48:27.944Z,23.20
2018-05-27T18:50:54.915Z,23.10
2018-05-27T18:53:21.110Z,23.00
2018-05-27T18:55:48.079Z,22.90
2018-05-27T18:58:14.290Z,22.90
2018-05-27T19:00:41.279Z,22.80
2018-05-27T19:03:07.475Z,22.80
2018-05-27T19:05:34.447Z,22.50
2018-05-27T19:08:00.634Z,22.50
2018-05-27T19:10:26.879Z,22.40
2018-05-27T19:12:53.814Z,22.30
2018-05-27T19:15:20.838Z,22.20
2018-05-27T19:17:47.034Z,22.20
2018-05-27T19:20:13.259Z,22.10
2018-05-27T19:22:39.451Z,21.90
2018-05-27T19:25:06.418Z,21.70
2018-05-27T19:27:32.611Z,21.70
2018-05-27T19:29:58.835Z,21.60
2018-05-27T19:32:25.039Z,21.50
2018-05-27T19:34:51.255Z,21.60
2018-05-27T19:37:17.458Z,21.50
2018-05-27T19:39:43.743Z,21.40
2018-05-27T19:42:09.959Z,21.10
2018-05-27T19:44:37.651Z,20.80
2018-05-27T19:47:03.879Z,20.80
2018-05-27T19:49:30.103Z,20.80
2018-05-27T19:51:56.303Z,20.70
2018-05-27T19:54:22.527Z,20.60
2018-05-27T19:56:48.734Z,20.60
2018-05-27T19:59:15.100Z,20.70
2018-05-27T20:01:41.319Z,20.60
2018-05-27T20:04:07.516Z,20.60
2018-05-27T20:06:33.739Z,20.60
2018-05-27T20:08:59.934Z,20.60
2018-05-27T20:11:27.637Z,20.60
2018-05-27T20:13:53.826Z,20.60
2018-05-27T20:16:20.050Z,20.50
2018-05-27T20:18:47.723Z,20.40
2018-05-27T20:21:13.945Z,20.40
2018-05-27T20:23:40.149Z,20.40
2018-05-27T20:26:06.374Z,20.30
2018-05-27T20:28:32.567Z,20.30
2018-05-27T20:30:58.819Z,20.10
2018-05-27T20:33:25.015Z,20.00
2018-05-27T20:35:52.427Z,19.90
2018-05-27T20:38:18.619Z,19.80
2018-05-27T20:40:44.811Z,19.80
2018-05-27T20:43:11.031Z,19.70
2018-05-27T20:45:37.291Z,19.60
2018-05-27T20:48:03.510Z,19.60
2018-05-27T20:50:30.449Z,19.60
2018-05-27T20:52:57.412Z,19.60
2018-05-27T20:55:23.607Z,19.50
2018-05-27T20:57:49.818Z,19.50
2018-05-27T21:00:16.013Z,19.50
2018-05-27T21:02:42.258Z,19.50
2018-05-27T21:05:08.455Z,19.40
2018-05-27T21:07:34.671Z,19.40
2018-05-27T21:10:01.610Z,19.40
2018-05-27T21:12:28.577Z,19.40
2018-05-27T21:15:01.658Z,19.30
2018-05-27T21:17:28.615Z,19.40
2018-05-27T21:19:54.810Z,19.30
2018-05-27T21:22:21.031Z,19.40
2018-05-27T21:24:47.227Z,19.40
2018-05-27T21:27:13.464Z,19.40
2018-05-27T21:29:39.664Z,19.40
2018-05-27T21:32:05.882Z,19.50
2018-05-27T21:34:32.078Z,19.50
2018-05-27T21:36:58.291Z,19.50
2018-05-27T21:39:24.477Z,19.50
2018-05-27T21:41:50.674Z,19.60
2018-05-27T21:44:17.635Z,19.60
2018-05-27T21:46:44.574Z,19.50
2018-05-27T21:49:11.536Z,19.50
2018-05-27T21:51:37.731Z,19.50
2018-05-27T21:54:03.953Z,19.60
2018-05-27T21:56:30.142Z,19.60
2018-05-27T21:58:56.363Z,19.60
2018-05-27T22:01:22.591Z,19.60
2018-05-27T22:03:48.807Z,19.60
2018-05-27T22:06:15.131Z,19.60
2018-05-27T22:08:42.786Z,19.70
2018-05-27T22:11:09.731Z,19.60
2018-05-27T22:13:36.690Z,19.70
2018-05-27T22:16:02.883Z,19.70
2018-05-27T22:18:29.102Z,19.70
2018-05-27T22:20:55.315Z,19.80
2018-05-27T22:23:21.603Z,19.80
2018-05-27T22:25:47.805Z,19.80
2018-05-27T22:28:14.019Z,19.90
2018-05-27T22:30:40.211Z,19.90
2018-05-27T22:33:06.426Z,19.90
2018-05-27T22:35:32.615Z,19.80
2018-05-27T22:37:58.834Z,19.80
2018-05-27T22:40:25.030Z,19.70
2018-05-27T22:42:51.250Z,19.70
2018-05-27T22:45:17.476Z,19.60
2018-05-27T22:47:43.671Z,19.60
2018-05-27T22:50:10.630Z,19.50
2018-05-27T22:52:37.571Z,19.40
2018-05-27T22:55:04.530Z,19.40
2018-05-27T22:57:30.722Z,19.40
2018-05-27T22:59:56.939Z,19.30
2018-05-27T23:02:23.162Z,19.20
2018-05-27T23:04:49.382Z,19.10
2018-05-27T23:07:15.602Z,19.00
2018-05-27T23:09:41.818Z,18.90
2018-05-27T23:12:08.010Z,18.80
2018-05-27T23:14:35.030Z,18.60
2018-05-27T23:17:01.222Z,18.60
2018-05-27T23:19:27.458Z,18.50
2018-05-27T23:22:00.707Z,18.40
2018-05-27T23:24:27.703Z,18.30
2018-05-27T23:26:53.897Z,18.20
2018-05-27T23:29:20.830Z,18.20
2018-05-27T23:31:47.788Z,18.20
2018-05-27T23:34:14.733Z,18.20
2018-05-27T23:36:41.702Z,18.20
2018-05-27T23:39:07.899Z,18.20
2018-05-27T23:41:34.859Z,18.20
2018-05-27T23:44:01.096Z,18.10
2018-05-27T23:46:27.315Z,18.10
2018-05-27T23:48:53.510Z,18.10
2018-05-27T23:51:19.754Z,18.10
2018-05-27T23:53:46.693Z,18.00
2018-05-27T23:56:12.906Z,17.90
2018-05-27T23:58:39.131Z,17.90
